sensor_id;sensor_type;location;lat;lon;timestamp;P1;durP1;ratioP1;P2;durP2;ratioP2
56877;SDS011;42765;44.764;19.676;2022-09-09T00:06:45;14.18;;;8.52;;
56877;SDS011;42765;44.764;19.676;2022-09-09T00:15:57;23.73;;;11.43;;
56877;SDS011;42765;44.764;19.676;2022-09-09T00:21:15;23.15;;;9.70;;
56877;SDS011;42765;44.764;19.676;2022-09-09T00:23:53;14.82;;;10.20;;
56877;SDS011;42765;44.764;19.676;2022-09-09T00:31:38;16.55;;;9.20;;
56877;SDS011;42765;44.764;19.676;2022-09-09T00:34:13;17.10;;;10.18;;
56877;SDS011;42765;44.764;19.676;2022-09-09T00:36:45;19.30;;;10.07;;
56877;SDS011;42765;44.764;19.676;2022-09-09T00:39:29;13.35;;;9.65;;
56877;SDS011;42765;44.764;19.676;2022-09-09T00:44:51;16.83;;;10.15;;
56877;SDS011;42765;44.764;19.676;2022-09-09T00:55:35;14.55;;;10.02;;
56877;SDS011;42765;44.764;19.676;2022-09-09T00:58:06;19.95;;;11.23;;
56877;SDS011;42765;44.764;19.676;2022-09-09T01:11:15;16.95;;;10.55;;
56877;SDS011;42765;44.764;19.676;2022-09-09T01:13:56;16.70;;;11.02;;
56877;SDS011;42765;44.764;19.676;2022-09-09T01:16:39;20.73;;;10.68;;
56877;SDS011;42765;44.764;19.676;2022-09-09T01:19:07;17.67;;;10.48;;
56877;SDS011;42765;44.764;19.676;2022-09-09T01:21:50;25.20;;;10.90;;
56877;SDS011;42765;44.764;19.676;2022-09-09T01:24:33;16.95;;;10.15;;
56877;SDS011;42765;44.764;19.676;2022-09-09T01:27:07;13.90;;;9.50;;
56877;SDS011;42765;44.764;19.676;2022-09-09T01:29:34;17.42;;;10.40;;
56877;SDS011;42765;44.764;19.676;2022-09-09T01:32:35;14.43;;;9.30;;
56877;SDS011;42765;44.764;19.676;2022-09-09T01:35:08;21.80;;;10.07;;
56877;SDS011;42765;44.764;19.676;2022-09-09T01:37:37;18.05;;;10.38;;
56877;SDS011;42765;44.764;19.676;2022-09-09T01:40:03;15.05;;;8.95;;
56877;SDS011;42765;44.764;19.676;2022-09-09T01:42:30;20.98;;;10.90;;
56877;SDS011;42765;44.764;19.676;2022-09-09T01:44:59;20.30;;;10.25;;
56877;SDS011;42765;44.764;19.676;2022-09-09T01:47:25;15.10;;;10.05;;
56877;SDS011;42765;44.764;19.676;2022-09-09T01:49:51;16.02;;;10.75;;
56877;SDS011;42765;44.764;19.676;2022-09-09T01:52:16;22.23;;;10.73;;
56877;SDS011;42765;44.764;19.676;2022-09-09T01:54:42;16.38;;;10.48;;
56877;SDS011;42765;44.764;19.676;2022-09-09T02:02:30;17.45;;;11.25;;
56877;SDS011;42765;44.764;19.676;2022-09-09T02:06:05;24.08;;;9.82;;
56877;SDS011;42765;44.764;19.676;2022-09-09T02:08:16;15.30;;;10.25;;
56877;SDS011;42765;44.764;19.676;2022-09-09T02:11:05;16.80;;;10.00;;
56877;SDS011;42765;44.764;19.676;2022-09-09T02:13:38;22.95;;;9.27;;
56877;SDS011;42765;44.764;19.676;2022-09-09T02:21:34;17.30;;;9.73;;
56877;SDS011;42765;44.764;19.676;2022-09-09T02:24:02;17.80;;;9.03;;
56877;SDS011;42765;44.764;19.676;2022-09-09T02:26:33;15.85;;;10.25;;
56877;SDS011;42765;44.764;19.676;2022-09-09T02:29:01;20.70;;;10.13;;
56877;SDS011;42765;44.764;19.676;2022-09-09T02:31:30;19.90;;;10.10;;
56877;SDS011;42765;44.764;19.676;2022-09-09T02:34:00;23.03;;;10.03;;
56877;SDS011;42765;44.764;19.676;2022-09-09T02:36:29;16.58;;;10.18;;
56877;SDS011;42765;44.764;19.676;2022-09-09T02:38:58;22.00;;;10.27;;
56877;SDS011;42765;44.764;19.676;2022-09-09T02:41:28;21.92;;;10.85;;
56877;SDS011;42765;44.764;19.676;2022-09-09T02:43:57;21.85;;;10.15;;
56877;SDS011;42765;44.764;19.676;2022-09-09T02:49:11;16.40;;;9.75;;
56877;SDS011;42765;44.764;19.676;2022-09-09T02:52:02;19.75;;;8.75;;
56877;SDS011;42765;44.764;19.676;2022-09-09T02:54:48;20.42;;;9.23;;
56877;SDS011;42765;44.764;19.676;2022-09-09T02:57:22;20.27;;;9.15;;
56877;SDS011;42765;44.764;19.676;2022-09-09T02:59:51;19.70;;;9.80;;
56877;SDS011;42765;44.764;19.676;2022-09-09T03:02:18;18.65;;;9.65;;
56877;SDS011;42765;44.764;19.676;2022-09-09T03:04:44;16.45;;;9.48;;
56877;SDS011;42765;44.764;19.676;2022-09-09T03:07:15;19.50;;;9.95;;
56877;SDS011;42765;44.764;19.676;2022-09-09T03:09:42;22.02;;;9.60;;
56877;SDS011;42765;44.764;19.676;2022-09-09T03:12:10;15.63;;;9.23;;
56877;SDS011;42765;44.764;19.676;2022-09-09T03:14:36;17.85;;;10.75;;
56877;SDS011;42765;44.764;19.676;2022-09-09T03:17:03;25.67;;;11.25;;
56877;SDS011;42765;44.764;19.676;2022-09-09T03:19:30;20.98;;;11.05;;
56877;SDS011;42765;44.764;19.676;2022-09-09T03:21:56;20.40;;;11.55;;
56877;SDS011;42765;44.764;19.676;2022-09-09T03:24:23;26.73;;;13.88;;
56877;SDS011;42765;44.764;19.676;2022-09-09T03:26:49;25.88;;;15.73;;
56877;SDS011;42765;44.764;19.676;2022-09-09T03:29:16;27.17;;;16.38;;
56877;SDS011;42765;44.764;19.676;2022-09-09T03:31:45;29.92;;;15.27;;
56877;SDS011;42765;44.764;19.676;2022-09-09T03:34:11;18.42;;;10.80;;
56877;SDS011;42765;44.764;19.676;2022-09-09T03:36:38;19.73;;;11.43;;
56877;SDS011;42765;44.764;19.676;2022-09-09T03:39:06;25.40;;;12.45;;
56877;SDS011;42765;44.764;19.676;2022-09-09T03:41:31;24.05;;;11.95;;
56877;SDS011;42765;44.764;19.676;2022-09-09T03:43:57;21.50;;;11.45;;
56877;SDS011;42765;44.764;19.676;2022-09-09T03:46:24;22.75;;;12.02;;
56877;SDS011;42765;44.764;19.676;2022-09-09T03:48:50;26.25;;;11.90;;
56877;SDS011;42765;44.764;19.676;2022-09-09T03:51:19;26.67;;;12.02;;
56877;SDS011;42765;44.764;19.676;2022-09-09T03:53:46;20.73;;;11.48;;
56877;SDS011;42765;44.764;19.676;2022-09-09T03:56:12;25.80;;;11.77;;
56877;SDS011;42765;44.764;19.676;2022-09-09T03:58:38;23.35;;;12.13;;
56877;SDS011;42765;44.764;19.676;2022-09-09T04:01:05;27.67;;;11.98;;
56877;SDS011;42765;44.764;19.676;2022-09-09T04:03:38;19.25;;;11.95;;
56877;SDS011;42765;44.764;19.676;2022-09-09T04:06:04;21.10;;;11.80;;
56877;SDS011;42765;44.764;19.676;2022-09-09T04:08:32;20.98;;;10.98;;
56877;SDS011;42765;44.764;19.676;2022-09-09T04:10:59;21.83;;;12.75;;
56877;SDS011;42765;44.764;19.676;2022-09-09T04:13:27;21.55;;;12.55;;
56877;SDS011;42765;44.764;19.676;2022-09-09T04:15:54;20.20;;;11.55;;
56877;SDS011;42765;44.764;19.676;2022-09-09T04:18:22;20.95;;;11.75;;
56877;SDS011;42765;44.764;19.676;2022-09-09T04:20:49;24.10;;;11.90;;
56877;SDS011;42765;44.764;19.676;2022-09-09T04:23:16;20.80;;;10.60;;
56877;SDS011;42765;44.764;19.676;2022-09-09T04:25:44;21.85;;;11.75;;
56877;SDS011;42765;44.764;19.676;2022-09-09T04:28:12;17.80;;;10.35;;
56877;SDS011;42765;44.764;19.676;2022-09-09T04:30:39;24.58;;;11.27;;
56877;SDS011;42765;44.764;19.676;2022-09-09T04:33:06;23.35;;;11.65;;
56877;SDS011;42765;44.764;19.676;2022-09-09T04:35:32;20.45;;;12.15;;
56877;SDS011;42765;44.764;19.676;2022-09-09T04:37:59;26.45;;;11.70;;
56877;SDS011;42765;44.764;19.676;2022-09-09T04:40:25;19.77;;;10.88;;
56877;SDS011;42765;44.764;19.676;2022-09-09T04:42:50;33.40;;;12.15;;
56877;SDS011;42765;44.764;19.676;2022-09-09T04:45:16;18.55;;;12.30;;
56877;SDS011;42765;44.764;19.676;2022-09-09T04:47:43;22.90;;;12.80;;
56877;SDS011;42765;44.764;19.676;2022-09-09T04:50:09;19.67;;;11.98;;
56877;SDS011;42765;44.764;19.676;2022-09-09T04:52:35;20.33;;;11.82;;
56877;SDS011;42765;44.764;19.676;2022-09-09T04:55:01;20.87;;;12.00;;
56877;SDS011;42765;44.764;19.676;2022-09-09T04:57:27;16.80;;;10.33;;
56877;SDS011;42765;44.764;19.676;2022-09-09T04:59:53;17.75;;;11.27;;
56877;SDS011;42765;44.764;19.676;2022-09-09T05:02:19;16.73;;;10.50;;
56877;SDS011;42765;44.764;19.676;2022-09-09T05:04:45;13.05;;;9.40;;
56877;SDS011;42765;44.764;19.676;2022-09-09T05:07:11;17.58;;;10.55;;
56877;SDS011;42765;44.764;19.676;2022-09-09T05:09:38;16.92;;;10.43;;
56877;SDS011;42765;44.764;19.676;2022-09-09T05:12:04;19.98;;;11.05;;
56877;SDS011;42765;44.764;19.676;2022-09-09T05:14:30;14.27;;;10.27;;
56877;SDS011;42765;44.764;19.676;2022-09-09T05:16:55;17.20;;;10.20;;
56877;SDS011;42765;44.764;19.676;2022-09-09T05:19:23;19.83;;;10.57;;
56877;SDS011;42765;44.764;19.676;2022-09-09T05:21:49;20.63;;;10.80;;
56877;SDS011;42765;44.764;19.676;2022-09-09T05:24:15;17.63;;;10.32;;
56877;SDS011;42765;44.764;19.676;2022-09-09T05:26:41;19.27;;;11.30;;
56877;SDS011;42765;44.764;19.676;2022-09-09T05:29:08;17.50;;;11.02;;
56877;SDS011;42765;44.764;19.676;2022-09-09T05:31:34;21.27;;;10.57;;
56877;SDS011;42765;44.764;19.676;2022-09-09T05:34:00;20.45;;;10.82;;
56877;SDS011;42765;44.764;19.676;2022-09-09T05:36:26;22.48;;;10.63;;
56877;SDS011;42765;44.764;19.676;2022-09-09T05:38:52;15.13;;;11.02;;
56877;SDS011;42765;44.764;19.676;2022-09-09T05:41:18;19.00;;;11.40;;
56877;SDS011;42765;44.764;19.676;2022-09-09T05:43:45;19.15;;;10.77;;
56877;SDS011;42765;44.764;19.676;2022-09-09T05:46:16;18.45;;;11.20;;
56877;SDS011;42765;44.764;19.676;2022-09-09T05:48:44;21.85;;;11.98;;
56877;SDS011;42765;44.764;19.676;2022-09-09T05:51:13;18.33;;;11.75;;
56877;SDS011;42765;44.764;19.676;2022-09-09T05:53:42;17.80;;;12.57;;
56877;SDS011;42765;44.764;19.676;2022-09-09T05:56:13;18.73;;;11.80;;
56877;SDS011;42765;44.764;19.676;2022-09-09T05:58:40;21.02;;;13.23;;
56877;SDS011;42765;44.764;19.676;2022-09-09T06:01:10;23.48;;;11.82;;
56877;SDS011;42765;44.764;19.676;2022-09-09T06:03:39;19.70;;;12.32;;
56877;SDS011;42765;44.764;19.676;2022-09-09T06:06:07;16.77;;;11.68;;
56877;SDS011;42765;44.764;19.676;2022-09-09T06:08:34;19.55;;;12.32;;
56877;SDS011;42765;44.764;19.676;2022-09-09T06:13:51;19.98;;;11.45;;
56877;SDS011;42765;44.764;19.676;2022-09-09T06:16:19;19.00;;;12.00;;
56877;SDS011;42765;44.764;19.676;2022-09-09T06:18:48;18.98;;;11.10;;
56877;SDS011;42765;44.764;19.676;2022-09-09T06:21:20;16.20;;;10.55;;
56877;SDS011;42765;44.764;19.676;2022-09-09T06:26:17;20.23;;;11.63;;
56877;SDS011;42765;44.764;19.676;2022-09-09T06:28:47;15.07;;;10.45;;
56877;SDS011;42765;44.764;19.676;2022-09-09T06:31:18;20.90;;;12.17;;
56877;SDS011;42765;44.764;19.676;2022-09-09T06:33:49;19.77;;;11.63;;
56877;SDS011;42765;44.764;19.676;2022-09-09T06:36:17;17.38;;;11.05;;
56877;SDS011;42765;44.764;19.676;2022-09-09T06:38:44;20.60;;;10.80;;
56877;SDS011;42765;44.764;19.676;2022-09-09T06:41:11;24.52;;;11.52;;
56877;SDS011;42765;44.764;19.676;2022-09-09T06:43:38;27.65;;;13.23;;
56877;SDS011;42765;44.764;19.676;2022-09-09T06:46:05;25.10;;;12.15;;
56877;SDS011;42765;44.764;19.676;2022-09-09T06:48:36;27.85;;;11.90;;
56877;SDS011;42765;44.764;19.676;2022-09-09T06:53:33;21.10;;;12.93;;
56877;SDS011;42765;44.764;19.676;2022-09-09T06:56:01;25.00;;;13.45;;
56877;SDS011;42765;44.764;19.676;2022-09-09T06:58:28;22.50;;;13.00;;
56877;SDS011;42765;44.764;19.676;2022-09-09T07:01:04;20.85;;;12.77;;
56877;SDS011;42765;44.764;19.676;2022-09-09T07:03:31;25.13;;;13.52;;
56877;SDS011;42765;44.764;19.676;2022-09-09T07:05:57;19.30;;;11.80;;
56877;SDS011;42765;44.764;19.676;2022-09-09T07:08:24;20.42;;;12.38;;
56877;SDS011;42765;44.764;19.676;2022-09-09T07:10:51;18.77;;;11.18;;
56877;SDS011;42765;44.764;19.676;2022-09-09T07:13:24;20.33;;;11.45;;
56877;SDS011;42765;44.764;19.676;2022-09-09T07:15:52;18.38;;;10.70;;
56877;SDS011;42765;44.764;19.676;2022-09-09T07:18:19;18.55;;;10.43;;
56877;SDS011;42765;44.764;19.676;2022-09-09T07:20:53;15.38;;;8.73;;
56877;SDS011;42765;44.764;19.676;2022-09-09T07:23:20;13.75;;;9.23;;
56877;SDS011;42765;44.764;19.676;2022-09-09T07:25:46;19.77;;;9.10;;
56877;SDS011;42765;44.764;19.676;2022-09-09T07:28:12;10.93;;;8.60;;
56877;SDS011;42765;44.764;19.676;2022-09-09T07:30:39;14.38;;;8.30;;
56877;SDS011;42765;44.764;19.676;2022-09-09T07:33:06;16.27;;;7.90;;
56877;SDS011;42765;44.764;19.676;2022-09-09T07:35:32;13.40;;;8.18;;
56877;SDS011;42765;44.764;19.676;2022-09-09T07:38:00;21.13;;;8.98;;
56877;SDS011;42765;44.764;19.676;2022-09-09T07:40:26;14.13;;;8.32;;
56877;SDS011;42765;44.764;19.676;2022-09-09T07:42:52;14.00;;;8.57;;
56877;SDS011;42765;44.764;19.676;2022-09-09T07:45:18;15.32;;;8.15;;
56877;SDS011;42765;44.764;19.676;2022-09-09T07:47:44;15.90;;;8.70;;
56877;SDS011;42765;44.764;19.676;2022-09-09T07:50:10;23.00;;;9.57;;
56877;SDS011;42765;44.764;19.676;2022-09-09T07:52:36;21.02;;;9.75;;
56877;SDS011;42765;44.764;19.676;2022-09-09T07:55:02;33.03;;;17.23;;
56877;SDS011;42765;44.764;19.676;2022-09-09T07:57:29;24.10;;;14.27;;
56877;SDS011;42765;44.764;19.676;2022-09-09T07:59:56;12.95;;;8.40;;
56877;SDS011;42765;44.764;19.676;2022-09-09T08:02:25;13.70;;;7.75;;
56877;SDS011;42765;44.764;19.676;2022-09-09T08:04:53;12.60;;;7.63;;
56877;SDS011;42765;44.764;19.676;2022-09-09T08:07:18;18.10;;;8.80;;
56877;SDS011;42765;44.764;19.676;2022-09-09T08:09:46;16.50;;;9.20;;
56877;SDS011;42765;44.764;19.676;2022-09-09T08:12:12;17.55;;;7.90;;
56877;SDS011;42765;44.764;19.676;2022-09-09T08:14:38;12.97;;;7.60;;
56877;SDS011;42765;44.764;19.676;2022-09-09T08:17:05;18.17;;;8.75;;
56877;SDS011;42765;44.764;19.676;2022-09-09T08:19:31;13.20;;;8.75;;
56877;SDS011;42765;44.764;19.676;2022-09-09T08:22:00;13.40;;;9.60;;
56877;SDS011;42765;44.764;19.676;2022-09-09T08:24:27;18.05;;;9.32;;
56877;SDS011;42765;44.764;19.676;2022-09-09T08:26:53;17.63;;;9.87;;
56877;SDS011;42765;44.764;19.676;2022-09-09T08:29:19;13.65;;;9.70;;
56877;SDS011;42765;44.764;19.676;2022-09-09T08:31:49;15.88;;;10.32;;
56877;SDS011;42765;44.764;19.676;2022-09-09T08:34:17;17.42;;;10.82;;
56877;SDS011;42765;44.764;19.676;2022-09-09T08:36:45;15.65;;;9.80;;
56877;SDS011;42765;44.764;19.676;2022-09-09T08:39:30;14.50;;;9.02;;
56877;SDS011;42765;44.764;19.676;2022-09-09T08:42:04;12.38;;;9.45;;
56877;SDS011;42765;44.764;19.676;2022-09-09T08:47:26;16.67;;;9.45;;
56877;SDS011;42765;44.764;19.676;2022-09-09T08:53:01;16.77;;;9.68;;
56877;SDS011;42765;44.764;19.676;2022-09-09T08:58:17;13.88;;;9.13;;
56877;SDS011;42765;44.764;19.676;2022-09-09T09:03:33;19.13;;;8.25;;
56877;SDS011;42765;44.764;19.676;2022-09-09T09:11:56;13.65;;;7.63;;
56877;SDS011;42765;44.764;19.676;2022-09-09T09:17:05;12.13;;;8.70;;
56877;SDS011;42765;44.764;19.676;2022-09-09T09:19:38;9.48;;;7.50;;
56877;SDS011;42765;44.764;19.676;2022-09-09T09:22:19;13.25;;;7.03;;
56877;SDS011;42765;44.764;19.676;2022-09-09T09:25:16;12.05;;;7.43;;
56877;SDS011;42765;44.764;19.676;2022-09-09T09:28:00;14.88;;;7.93;;
56877;SDS011;42765;44.764;19.676;2022-09-09T09:30:57;16.53;;;7.00;;
56877;SDS011;42765;44.764;19.676;2022-09-09T09:36:11;8.48;;;6.70;;
56877;SDS011;42765;44.764;19.676;2022-09-09T09:38:40;10.02;;;7.22;;
56877;SDS011;42765;44.764;19.676;2022-09-09T09:43:57;11.57;;;6.97;;
56877;SDS011;42765;44.764;19.676;2022-09-09T09:46:25;10.73;;;7.28;;
56877;SDS011;42765;44.764;19.676;2022-09-09T09:48:58;11.68;;;7.90;;
56877;SDS011;42765;44.764;19.676;2022-09-09T09:51:25;14.90;;;7.25;;
56877;SDS011;42765;44.764;19.676;2022-09-09T09:53:52;13.43;;;7.05;;
56877;SDS011;42765;44.764;19.676;2022-09-09T10:09:03;15.02;;;6.55;;
56877;SDS011;42765;44.764;19.676;2022-09-09T10:22:34;9.55;;;6.28;;
56877;SDS011;42765;44.764;19.676;2022-09-09T10:30:42;11.18;;;5.43;;
56877;SDS011;42765;44.764;19.676;2022-09-09T10:33:21;10.02;;;5.32;;
56877;SDS011;42765;44.764;19.676;2022-09-09T10:50:08;10.63;;;4.63;;
56877;SDS011;42765;44.764;19.676;2022-09-09T10:53:15;9.73;;;4.70;;
56877;SDS011;42765;44.764;19.676;2022-09-09T10:56:08;9.85;;;4.30;;
56877;SDS011;42765;44.764;19.676;2022-09-09T10:58:41;7.38;;;4.40;;
56877;SDS011;42765;44.764;19.676;2022-09-09T11:01:13;12.90;;;4.70;;
56877;SDS011;42765;44.764;19.676;2022-09-09T11:03:48;5.53;;;4.30;;
56877;SDS011;42765;44.764;19.676;2022-09-09T11:06:35;15.35;;;4.45;;
56877;SDS011;42765;44.764;19.676;2022-09-09T11:09:04;11.48;;;4.38;;
56877;SDS011;42765;44.764;19.676;2022-09-09T11:11:37;5.03;;;3.67;;
56877;SDS011;42765;44.764;19.676;2022-09-09T11:16:53;6.78;;;3.85;;
56877;SDS011;42765;44.764;19.676;2022-09-09T11:19:30;9.45;;;3.63;;
56877;SDS011;42765;44.764;19.676;2022-09-09T11:24:35;9.52;;;4.35;;
56877;SDS011;42765;44.764;19.676;2022-09-09T11:27:26;10.90;;;3.78;;
56877;SDS011;42765;44.764;19.676;2022-09-09T11:41:23;6.78;;;3.90;;
56877;SDS011;42765;44.764;19.676;2022-09-09T11:43:51;11.13;;;3.40;;
56877;SDS011;42765;44.764;19.676;2022-09-09T11:46:18;7.93;;;3.75;;
56877;SDS011;42765;44.764;19.676;2022-09-09T11:48:58;10.82;;;3.83;;
56877;SDS011;42765;44.764;19.676;2022-09-09T11:53:54;4.63;;;2.58;;
56877;SDS011;42765;44.764;19.676;2022-09-09T12:01:41;6.00;;;2.83;;
56877;SDS011;42765;44.764;19.676;2022-09-09T12:06:45;6.72;;;3.38;;
56877;SDS011;42765;44.764;19.676;2022-09-09T12:14:55;7.05;;;3.38;;
56877;SDS011;42765;44.764;19.676;2022-09-09T12:17:25;7.32;;;3.75;;
56877;SDS011;42765;44.764;19.676;2022-09-09T12:20:12;8.70;;;3.53;;
56877;SDS011;42765;44.764;19.676;2022-09-09T12:22:43;6.78;;;3.08;;
56877;SDS011;42765;44.764;19.676;2022-09-09T12:28:17;6.75;;;3.08;;
56877;SDS011;42765;44.764;19.676;2022-09-09T12:34:15;9.00;;;3.85;;
56877;SDS011;42765;44.764;19.676;2022-09-09T12:36:41;8.43;;;3.60;;
56877;SDS011;42765;44.764;19.676;2022-09-09T12:39:21;9.80;;;3.75;;
56877;SDS011;42765;44.764;19.676;2022-09-09T12:41:53;8.15;;;3.58;;
56877;SDS011;42765;44.764;19.676;2022-09-09T12:44:21;6.50;;;3.42;;
56877;SDS011;42765;44.764;19.676;2022-09-09T12:46:48;6.50;;;3.65;;
56877;SDS011;42765;44.764;19.676;2022-09-09T12:49:47;6.05;;;3.30;;
56877;SDS011;42765;44.764;19.676;2022-09-09T12:52:14;5.88;;;3.22;;
56877;SDS011;42765;44.764;19.676;2022-09-09T12:54:46;8.38;;;3.40;;
56877;SDS011;42765;44.764;19.676;2022-09-09T12:57:13;6.07;;;3.08;;
56877;SDS011;42765;44.764;19.676;2022-09-09T12:59:41;6.40;;;3.22;;
56877;SDS011;42765;44.764;19.676;2022-09-09T13:02:22;9.50;;;3.50;;
56877;SDS011;42765;44.764;19.676;2022-09-09T13:04:49;11.20;;;4.00;;
56877;SDS011;42765;44.764;19.676;2022-09-09T13:07:16;10.65;;;3.50;;
56877;SDS011;42765;44.764;19.676;2022-09-09T13:09:42;8.27;;;4.00;;
56877;SDS011;42765;44.764;19.676;2022-09-09T13:12:16;10.75;;;5.25;;
56877;SDS011;42765;44.764;19.676;2022-09-09T13:14:45;11.20;;;4.07;;
56877;SDS011;42765;44.764;19.676;2022-09-09T13:17:23;9.60;;;4.00;;
56877;SDS011;42765;44.764;19.676;2022-09-09T13:19:52;10.68;;;4.75;;
56877;SDS011;42765;44.764;19.676;2022-09-09T13:22:21;16.35;;;5.18;;
56877;SDS011;42765;44.764;19.676;2022-09-09T13:24:48;9.13;;;4.32;;
56877;SDS011;42765;44.764;19.676;2022-09-09T13:27:31;9.30;;;4.60;;
56877;SDS011;42765;44.764;19.676;2022-09-09T13:29:59;7.80;;;4.75;;
56877;SDS011;42765;44.764;19.676;2022-09-09T13:32:28;11.73;;;5.07;;
56877;SDS011;42765;44.764;19.676;2022-09-09T13:34:57;10.82;;;5.05;;
56877;SDS011;42765;44.764;19.676;2022-09-09T13:37:35;5.65;;;4.45;;
56877;SDS011;42765;44.764;19.676;2022-09-09T13:40:03;7.57;;;4.32;;
56877;SDS011;42765;44.764;19.676;2022-09-09T13:42:32;10.02;;;4.65;;
56877;SDS011;42765;44.764;19.676;2022-09-09T13:45:03;19.30;;;5.05;;
56877;SDS011;42765;44.764;19.676;2022-09-09T13:47:33;6.38;;;4.43;;
56877;SDS011;42765;44.764;19.676;2022-09-09T13:53:02;6.82;;;4.35;;
56877;SDS011;42765;44.764;19.676;2022-09-09T13:55:29;8.98;;;4.72;;
56877;SDS011;42765;44.764;19.676;2022-09-09T13:57:56;9.07;;;4.30;;
56877;SDS011;42765;44.764;19.676;2022-09-09T14:00:25;6.85;;;4.25;;
56877;SDS011;42765;44.764;19.676;2022-09-09T14:02:51;6.75;;;4.35;;
56877;SDS011;42765;44.764;19.676;2022-09-09T14:05:19;11.23;;;4.38;;
56877;SDS011;42765;44.764;19.676;2022-09-09T14:07:47;7.93;;;4.65;;
56877;SDS011;42765;44.764;19.676;2022-09-09T14:10:14;6.95;;;4.78;;
56877;SDS011;42765;44.764;19.676;2022-09-09T14:12:40;5.75;;;4.68;;
56877;SDS011;42765;44.764;19.676;2022-09-09T14:15:07;10.32;;;4.82;;
56877;SDS011;42765;44.764;19.676;2022-09-09T14:17:35;6.85;;;4.10;;
56877;SDS011;42765;44.764;19.676;2022-09-09T14:20:04;8.73;;;4.35;;
56877;SDS011;42765;44.764;19.676;2022-09-09T14:22:36;6.10;;;4.10;;
56877;SDS011;42765;44.764;19.676;2022-09-09T14:25:04;5.30;;;4.53;;
56877;SDS011;42765;44.764;19.676;2022-09-09T14:27:31;8.52;;;4.57;;
56877;SDS011;42765;44.764;19.676;2022-09-09T14:29:57;6.50;;;4.20;;
56877;SDS011;42765;44.764;19.676;2022-09-09T14:32:25;10.70;;;4.35;;
56877;SDS011;42765;44.764;19.676;2022-09-09T14:34:51;7.85;;;4.28;;
56877;SDS011;42765;44.764;19.676;2022-09-09T14:37:17;6.05;;;4.45;;
56877;SDS011;42765;44.764;19.676;2022-09-09T14:39:44;7.32;;;4.65;;
56877;SDS011;42765;44.764;19.676;2022-09-09T14:42:11;12.23;;;4.97;;
56877;SDS011;42765;44.764;19.676;2022-09-09T14:44:38;7.13;;;4.43;;
56877;SDS011;42765;44.764;19.676;2022-09-09T14:47:07;9.30;;;4.72;;
56877;SDS011;42765;44.764;19.676;2022-09-09T14:49:34;8.32;;;4.40;;
56877;SDS011;42765;44.764;19.676;2022-09-09T14:52:00;9.50;;;4.38;;
56877;SDS011;42765;44.764;19.676;2022-09-09T14:54:26;5.60;;;4.30;;
56877;SDS011;42765;44.764;19.676;2022-09-09T14:56:53;7.90;;;4.65;;
56877;SDS011;42765;44.764;19.676;2022-09-09T14:59:19;7.07;;;4.68;;
56877;SDS011;42765;44.764;19.676;2022-09-09T15:01:45;5.22;;;4.32;;
56877;SDS011;42765;44.764;19.676;2022-09-09T15:04:11;11.38;;;4.53;;
56877;SDS011;42765;44.764;19.676;2022-09-09T15:06:39;10.52;;;7.90;;
56877;SDS011;42765;44.764;19.676;2022-09-09T15:09:07;8.52;;;5.55;;
56877;SDS011;42765;44.764;19.676;2022-09-09T15:11:34;7.53;;;4.85;;
56877;SDS011;42765;44.764;19.676;2022-09-09T15:14:03;8.30;;;4.35;;
56877;SDS011;42765;44.764;19.676;2022-09-09T15:16:30;6.97;;;4.70;;
56877;SDS011;42765;44.764;19.676;2022-09-09T15:18:57;7.57;;;4.05;;
56877;SDS011;42765;44.764;19.676;2022-09-09T15:21:25;6.40;;;4.45;;
56877;SDS011;42765;44.764;19.676;2022-09-09T15:23:54;8.77;;;4.30;;
56877;SDS011;42765;44.764;19.676;2022-09-09T15:26:20;7.30;;;5.43;;
56877;SDS011;42765;44.764;19.676;2022-09-09T15:28:47;11.05;;;4.72;;
56877;SDS011;42765;44.764;19.676;2022-09-09T15:31:21;14.77;;;5.00;;
56877;SDS011;42765;44.764;19.676;2022-09-09T15:33:48;7.55;;;4.35;;
56877;SDS011;42765;44.764;19.676;2022-09-09T15:36:22;8.60;;;3.88;;
56877;SDS011;42765;44.764;19.676;2022-09-09T15:38:50;9.02;;;4.20;;
56877;SDS011;42765;44.764;19.676;2022-09-09T15:41:17;8.07;;;4.20;;
56877;SDS011;42765;44.764;19.676;2022-09-09T15:43:48;4.88;;;3.47;;
56877;SDS011;42765;44.764;19.676;2022-09-09T15:51:34;10.00;;;5.05;;
56877;SDS011;42765;44.764;19.676;2022-09-09T15:54:00;11.10;;;5.10;;
56877;SDS011;42765;44.764;19.676;2022-09-09T15:56:27;9.27;;;5.50;;
56877;SDS011;42765;44.764;19.676;2022-09-09T15:58:55;9.50;;;5.07;;
56877;SDS011;42765;44.764;19.676;2022-09-09T16:01:22;8.18;;;4.47;;
56877;SDS011;42765;44.764;19.676;2022-09-09T16:03:48;9.27;;;4.95;;
56877;SDS011;42765;44.764;19.676;2022-09-09T16:06:16;7.82;;;5.07;;
56877;SDS011;42765;44.764;19.676;2022-09-09T16:08:47;12.75;;;6.13;;
56877;SDS011;42765;44.764;19.676;2022-09-09T16:11:18;10.77;;;5.15;;
56877;SDS011;42765;44.764;19.676;2022-09-09T16:13:46;7.93;;;5.22;;
56877;SDS011;42765;44.764;19.676;2022-09-09T16:16:14;10.07;;;4.88;;
56877;SDS011;42765;44.764;19.676;2022-09-09T16:18:45;10.30;;;5.10;;
56877;SDS011;42765;44.764;19.676;2022-09-09T16:21:16;7.22;;;5.28;;
56877;SDS011;42765;44.764;19.676;2022-09-09T16:23:44;10.77;;;4.60;;
56877;SDS011;42765;44.764;19.676;2022-09-09T16:26:14;12.32;;;5.45;;
56877;SDS011;42765;44.764;19.676;2022-09-09T16:28:41;11.50;;;6.03;;
56877;SDS011;42765;44.764;19.676;2022-09-09T16:31:07;14.68;;;6.47;;
56877;SDS011;42765;44.764;19.676;2022-09-09T16:33:35;10.35;;;6.15;;
56877;SDS011;42765;44.764;19.676;2022-09-09T16:36:05;14.93;;;6.25;;
56877;SDS011;42765;44.764;19.676;2022-09-09T16:38:31;13.15;;;5.70;;
56877;SDS011;42765;44.764;19.676;2022-09-09T16:40:58;16.13;;;6.40;;
56877;SDS011;42765;44.764;19.676;2022-09-09T16:43:25;20.08;;;11.30;;
56877;SDS011;42765;44.764;19.676;2022-09-09T16:45:51;11.13;;;6.38;;
56877;SDS011;42765;44.764;19.676;2022-09-09T16:48:16;10.07;;;6.95;;
56877;SDS011;42765;44.764;19.676;2022-09-09T16:50:42;9.82;;;6.20;;
56877;SDS011;42765;44.764;19.676;2022-09-09T16:53:08;8.10;;;6.30;;
56877;SDS011;42765;44.764;19.676;2022-09-09T16:55:41;13.32;;;6.40;;
56877;SDS011;42765;44.764;19.676;2022-09-09T16:58:08;10.05;;;5.57;;
56877;SDS011;42765;44.764;19.676;2022-09-09T17:00:36;10.82;;;6.13;;
56877;SDS011;42765;44.764;19.676;2022-09-09T17:03:02;13.63;;;5.85;;
56877;SDS011;42765;44.764;19.676;2022-09-09T17:05:28;10.02;;;5.65;;
56877;SDS011;42765;44.764;19.676;2022-09-09T17:07:54;12.27;;;5.75;;
56877;SDS011;42765;44.764;19.676;2022-09-09T17:10:23;13.25;;;6.53;;
56877;SDS011;42765;44.764;19.676;2022-09-09T17:12:50;14.55;;;6.97;;
56877;SDS011;42765;44.764;19.676;2022-09-09T17:15:16;13.95;;;6.40;;
56877;SDS011;42765;44.764;19.676;2022-09-09T17:17:43;14.70;;;6.27;;
56877;SDS011;42765;44.764;19.676;2022-09-09T17:20:10;15.75;;;7.05;;
56877;SDS011;42765;44.764;19.676;2022-09-09T17:22:36;11.07;;;6.93;;
56877;SDS011;42765;44.764;19.676;2022-09-09T17:25:02;13.82;;;7.72;;
56877;SDS011;42765;44.764;19.676;2022-09-09T17:27:29;11.40;;;7.17;;
56877;SDS011;42765;44.764;19.676;2022-09-09T17:29:56;11.13;;;7.22;;
56877;SDS011;42765;44.764;19.676;2022-09-09T17:32:23;12.73;;;7.82;;
56877;SDS011;42765;44.764;19.676;2022-09-09T17:34:51;13.15;;;6.80;;